sensor_id;sensor_type;location;lat;lon;timestamp;P1;durP1;ratioP1;P2;durP2;ratioP2
48667;SDS011;34453;52.198;5.004;2024-01-27T00:00:55;21.25;;;4.43;;
48667;SDS011;34453;52.198;5.004;2024-01-27T00:03:20;16.40;;;4.10;;
48667;SDS011;34453;52.198;5.004;2024-01-27T00:05:46;19.95;;;3.70;;
48667;SDS011;34453;52.198;5.004;2024-01-27T00:08:11;27.65;;;4.85;;
48667;SDS011;34453;52.198;5.004;2024-01-27T00:10:37;23.15;;;4.57;;
48667;SDS011;34453;52.198;5.004;2024-01-27T00:13:02;33.85;;;4.07;;
48667;SDS011;34453;52.198;5.004;2024-01-27T00:15:28;24.23;;;3.47;;
48667;SDS011;34453;52.198;5.004;2024-01-27T00:17:53;20.33;;;3.58;;
48667;SDS011;34453;52.198;5.004;2024-01-27T00:20:19;16.45;;;4.40;;
48667;SDS011;34453;52.198;5.004;2024-01-27T00:22:44;15.77;;;3.75;;
48667;SDS011;34453;52.198;5.004;2024-01-27T00:25:10;15.30;;;3.22;;
48667;SDS011;34453;52.198;5.004;2024-01-27T00:27:35;9.35;;;2.88;;
48667;SDS011;34453;52.198;5.004;2024-01-27T00:30:01;15.52;;;3.78;;
48667;SDS011;34453;52.198;5.004;2024-01-27T00:32:27;19.40;;;4.07;;
48667;SDS011;34453;52.198;5.004;2024-01-27T00:34:52;19.10;;;4.78;;
48667;SDS011;34453;52.198;5.004;2024-01-27T00:37:17;10.10;;;3.53;;
48667;SDS011;34453;52.198;5.004;2024-01-27T00:39:43;14.55;;;2.72;;
48667;SDS011;34453;52.198;5.004;2024-01-27T00:42:10;22.65;;;3.78;;
48667;SDS011;34453;52.198;5.004;2024-01-27T00:44:35;21.75;;;3.22;;
48667;SDS011;34453;52.198;5.004;2024-01-27T00:47:01;14.23;;;3.97;;
48667;SDS011;34453;52.198;5.004;2024-01-27T00:49:27;14.95;;;4.15;;
48667;SDS011;34453;52.198;5.004;2024-01-27T00:51:53;24.67;;;3.22;;
48667;SDS011;34453;52.198;5.004;2024-01-27T00:54:18;21.27;;;3.05;;
48667;SDS011;34453;52.198;5.004;2024-01-27T00:56:43;21.23;;;5.13;;
48667;SDS011;34453;52.198;5.004;2024-01-27T00:59:09;17.15;;;5.65;;
48667;SDS011;34453;52.198;5.004;2024-01-27T01:01:34;12.60;;;3.20;;
48667;SDS011;34453;52.198;5.004;2024-01-27T01:04:00;22.17;;;4.85;;
48667;SDS011;34453;52.198;5.004;2024-01-27T01:06:25;15.90;;;3.63;;
48667;SDS011;34453;52.198;5.004;2024-01-27T01:08:51;12.18;;;3.15;;
48667;SDS011;34453;52.198;5.004;2024-01-27T01:11:16;19.48;;;3.33;;
48667;SDS011;34453;52.198;5.004;2024-01-27T01:13:41;17.35;;;3.30;;
48667;SDS011;34453;52.198;5.004;2024-01-27T01:16:07;16.60;;;3.55;;
48667;SDS011;34453;52.198;5.004;2024-01-27T01:18:33;23.45;;;3.63;;
48667;SDS011;34453;52.198;5.004;2024-01-27T01:20:58;7.70;;;2.85;;
48667;SDS011;34453;52.198;5.004;2024-01-27T01:23:24;19.20;;;3.92;;
48667;SDS011;34453;52.198;5.004;2024-01-27T01:25:49;12.90;;;3.45;;
48667;SDS011;34453;52.198;5.004;2024-01-27T01:28:15;18.63;;;3.58;;
48667;SDS011;34453;52.198;5.004;2024-01-27T01:30:40;17.55;;;4.63;;
48667;SDS011;34453;52.198;5.004;2024-01-27T01:33:06;20.95;;;3.90;;
48667;SDS011;34453;52.198;5.004;2024-01-27T01:35:31;17.27;;;3.20;;
48667;SDS011;34453;52.198;5.004;2024-01-27T01:37:57;21.60;;;4.18;;
48667;SDS011;34453;52.198;5.004;2024-01-27T01:40:23;12.15;;;3.28;;
48667;SDS011;34453;52.198;5.004;2024-01-27T01:42:51;19.00;;;4.18;;
48667;SDS011;34453;52.198;5.004;2024-01-27T01:45:17;18.42;;;3.80;;
48667;SDS011;34453;52.198;5.004;2024-01-27T01:47:42;19.92;;;4.80;;
48667;SDS011;34453;52.198;5.004;2024-01-27T01:50:08;19.67;;;4.65;;
48667;SDS011;34453;52.198;5.004;2024-01-27T01:52:35;20.25;;;4.78;;
48667;SDS011;34453;52.198;5.004;2024-01-27T01:55:02;17.23;;;4.10;;
48667;SDS011;34453;52.198;5.004;2024-01-27T01:57:27;9.65;;;3.45;;
48667;SDS011;34453;52.198;5.004;2024-01-27T01:59:53;13.23;;;3.65;;
48667;SDS011;34453;52.198;5.004;2024-01-27T02:02:18;18.58;;;4.00;;
48667;SDS011;34453;52.198;5.004;2024-01-27T02:04:45;18.45;;;3.45;;
48667;SDS011;34453;52.198;5.004;2024-01-27T02:07:11;20.92;;;5.15;;
48667;SDS011;34453;52.198;5.004;2024-01-27T02:09:37;18.15;;;4.43;;
48667;SDS011;34453;52.198;5.004;2024-01-27T02:12:02;11.52;;;3.38;;
48667;SDS011;34453;52.198;5.004;2024-01-27T02:14:28;21.98;;;3.15;;
48667;SDS011;34453;52.198;5.004;2024-01-27T02:16:54;13.38;;;3.70;;
48667;SDS011;34453;52.198;5.004;2024-01-27T02:19:19;15.75;;;2.65;;
48667;SDS011;34453;52.198;5.004;2024-01-27T02:21:45;14.50;;;4.00;;
48667;SDS011;34453;52.198;5.004;2024-01-27T02:24:10;10.85;;;2.97;;
48667;SDS011;34453;52.198;5.004;2024-01-27T02:26:36;13.95;;;3.22;;
48667;SDS011;34453;52.198;5.004;2024-01-27T02:29:01;24.55;;;3.83;;
48667;SDS011;34453;52.198;5.004;2024-01-27T02:31:28;9.00;;;3.20;;
48667;SDS011;34453;52.198;5.004;2024-01-27T02:33:53;27.95;;;5.63;;
48667;SDS011;34453;52.198;5.004;2024-01-27T02:36:19;13.80;;;4.00;;
48667;SDS011;34453;52.198;5.004;2024-01-27T02:38:44;13.52;;;4.07;;
48667;SDS011;34453;52.198;5.004;2024-01-27T02:41:10;18.15;;;3.28;;
48667;SDS011;34453;52.198;5.004;2024-01-27T02:43:36;22.20;;;3.28;;
48667;SDS011;34453;52.198;5.004;2024-01-27T02:46:03;20.65;;;4.40;;
48667;SDS011;34453;52.198;5.004;2024-01-27T02:48:32;35.72;;;4.35;;
48667;SDS011;34453;52.198;5.004;2024-01-27T02:50:57;23.15;;;4.47;;
48667;SDS011;34453;52.198;5.004;2024-01-27T02:53:22;21.45;;;2.85;;
48667;SDS011;34453;52.198;5.004;2024-01-27T02:55:48;28.38;;;4.30;;
48667;SDS011;34453;52.198;5.004;2024-01-27T02:58:13;11.02;;;3.25;;
48667;SDS011;34453;52.198;5.004;2024-01-27T03:00:39;19.92;;;3.08;;
48667;SDS011;34453;52.198;5.004;2024-01-27T03:03:04;16.95;;;3.03;;
48667;SDS011;34453;52.198;5.004;2024-01-27T03:05:30;15.45;;;2.88;;
48667;SDS011;34453;52.198;5.004;2024-01-27T03:07:55;17.70;;;3.17;;
48667;SDS011;34453;52.198;5.004;2024-01-27T03:10:21;18.33;;;3.00;;
48667;SDS011;34453;52.198;5.004;2024-01-27T03:12:46;13.55;;;4.22;;
48667;SDS011;34453;52.198;5.004;2024-01-27T03:15:12;10.23;;;2.65;;
48667;SDS011;34453;52.198;5.004;2024-01-27T03:17:37;12.30;;;4.05;;
48667;SDS011;34453;52.198;5.004;2024-01-27T03:20:03;13.95;;;2.53;;
48667;SDS011;34453;52.198;5.004;2024-01-27T03:22:28;27.95;;;3.88;;
48667;SDS011;34453;52.198;5.004;2024-01-27T03:24:54;22.73;;;3.63;;
48667;SDS011;34453;52.198;5.004;2024-01-27T03:27:20;13.10;;;3.67;;
48667;SDS011;34453;52.198;5.004;2024-01-27T03:29:45;12.52;;;4.53;;
48667;SDS011;34453;52.198;5.004;2024-01-27T03:32:11;8.57;;;3.08;;
48667;SDS011;34453;52.198;5.004;2024-01-27T03:34:37;21.35;;;3.85;;
48667;SDS011;34453;52.198;5.004;2024-01-27T03:39:34;11.65;;;2.45;;
48667;SDS011;34453;52.198;5.004;2024-01-27T03:42:00;13.30;;;2.50;;
48667;SDS011;34453;52.198;5.004;2024-01-27T03:44:25;10.27;;;2.85;;
48667;SDS011;34453;52.198;5.004;2024-01-27T03:46:50;15.68;;;2.50;;
48667;SDS011;34453;52.198;5.004;2024-01-27T03:49:16;22.88;;;3.28;;
48667;SDS011;34453;52.198;5.004;2024-01-27T03:51:41;15.57;;;2.25;;
48667;SDS011;34453;52.198;5.004;2024-01-27T03:54:07;21.02;;;3.35;;
48667;SDS011;34453;52.198;5.004;2024-01-27T03:56:32;15.30;;;2.67;;
48667;SDS011;34453;52.198;5.004;2024-01-27T03:58:58;19.58;;;3.38;;
48667;SDS011;34453;52.198;5.004;2024-01-27T04:01:23;13.38;;;3.28;;
48667;SDS011;34453;52.198;5.004;2024-01-27T04:03:49;12.02;;;2.95;;
48667;SDS011;34453;52.198;5.004;2024-01-27T04:06:15;13.85;;;3.03;;
48667;SDS011;34453;52.198;5.004;2024-01-27T04:08:40;8.95;;;3.13;;
48667;SDS011;34453;52.198;5.004;2024-01-27T04:11:09;16.30;;;3.08;;
48667;SDS011;34453;52.198;5.004;2024-01-27T04:13:35;14.30;;;2.78;;
48667;SDS011;34453;52.198;5.004;2024-01-27T04:16:01;11.43;;;3.03;;
48667;SDS011;34453;52.198;5.004;2024-01-27T04:18:26;16.38;;;4.18;;
48667;SDS011;34453;52.198;5.004;2024-01-27T04:20:52;21.80;;;3.70;;
48667;SDS011;34453;52.198;5.004;2024-01-27T04:23:17;22.95;;;4.57;;
48667;SDS011;34453;52.198;5.004;2024-01-27T04:25:43;9.50;;;4.05;;
48667;SDS011;34453;52.198;5.004;2024-01-27T04:28:09;16.40;;;4.10;;
48667;SDS011;34453;52.198;5.004;2024-01-27T04:30:37;15.65;;;4.20;;
48667;SDS011;34453;52.198;5.004;2024-01-27T04:33:02;21.27;;;5.85;;
48667;SDS011;34453;52.198;5.004;2024-01-27T04:35:29;26.00;;;5.45;;
48667;SDS011;34453;52.198;5.004;2024-01-27T04:37:54;21.05;;;4.93;;
48667;SDS011;34453;52.198;5.004;2024-01-27T04:40:20;11.77;;;4.70;;
48667;SDS011;34453;52.198;5.004;2024-01-27T04:42:45;19.52;;;6.22;;
48667;SDS011;34453;52.198;5.004;2024-01-27T04:45:14;15.25;;;5.35;;
48667;SDS011;34453;52.198;5.004;2024-01-27T04:47:40;16.27;;;5.95;;
48667;SDS011;34453;52.198;5.004;2024-01-27T04:50:05;16.13;;;5.97;;
48667;SDS011;34453;52.198;5.004;2024-01-27T04:52:31;16.17;;;6.18;;
48667;SDS011;34453;52.198;5.004;2024-01-27T04:54:56;15.35;;;5.18;;
48667;SDS011;34453;52.198;5.004;2024-01-27T04:57:23;35.92;;;9.27;;
48667;SDS011;34453;52.198;5.004;2024-01-27T04:59:48;16.67;;;6.38;;
48667;SDS011;34453;52.198;5.004;2024-01-27T05:02:14;18.77;;;6.93;;
48667;SDS011;34453;52.198;5.004;2024-01-27T05:04:39;18.75;;;7.65;;
48667;SDS011;34453;52.198;5.004;2024-01-27T05:07:05;23.13;;;7.75;;
48667;SDS011;34453;52.198;5.004;2024-01-27T05:09:30;22.13;;;9.23;;
48667;SDS011;34453;52.198;5.004;2024-01-27T05:11:56;28.85;;;10.98;;
48667;SDS011;34453;52.198;5.004;2024-01-27T05:14:21;15.25;;;7.80;;
48667;SDS011;34453;52.198;5.004;2024-01-27T05:16:47;21.08;;;9.35;;
48667;SDS011;34453;52.198;5.004;2024-01-27T05:19:12;30.67;;;9.52;;
48667;SDS011;34453;52.198;5.004;2024-01-27T05:21:38;23.92;;;9.30;;
48667;SDS011;34453;52.198;5.004;2024-01-27T05:24:03;23.20;;;8.38;;
48667;SDS011;34453;52.198;5.004;2024-01-27T05:26:29;25.10;;;9.40;;
48667;SDS011;34453;52.198;5.004;2024-01-27T05:28:55;31.60;;;9.75;;
48667;SDS011;34453;52.198;5.004;2024-01-27T05:31:20;25.92;;;10.05;;
48667;SDS011;34453;52.198;5.004;2024-01-27T05:33:46;20.33;;;11.43;;
48667;SDS011;34453;52.198;5.004;2024-01-27T05:36:11;32.75;;;9.25;;
48667;SDS011;34453;52.198;5.004;2024-01-27T05:38:37;24.83;;;9.98;;
48667;SDS011;34453;52.198;5.004;2024-01-27T05:41:02;18.33;;;9.70;;
48667;SDS011;34453;52.198;5.004;2024-01-27T05:43:28;23.85;;;9.68;;
48667;SDS011;34453;52.198;5.004;2024-01-27T05:45:54;28.67;;;12.32;;
48667;SDS011;34453;52.198;5.004;2024-01-27T05:48:20;20.17;;;9.52;;
48667;SDS011;34453;52.198;5.004;2024-01-27T05:50:54;25.27;;;10.90;;
48667;SDS011;34453;52.198;5.004;2024-01-27T05:53:24;22.85;;;9.85;;
48667;SDS011;34453;52.198;5.004;2024-01-27T05:55:50;19.98;;;10.07;;
48667;SDS011;34453;52.198;5.004;2024-01-27T05:58:17;32.80;;;11.43;;
48667;SDS011;34453;52.198;5.004;2024-01-27T06:00:43;20.15;;;10.25;;
48667;SDS011;34453;52.198;5.004;2024-01-27T06:03:09;19.60;;;10.00;;
48667;SDS011;34453;52.198;5.004;2024-01-27T06:05:35;30.80;;;10.60;;
48667;SDS011;34453;52.198;5.004;2024-01-27T06:08:01;29.23;;;10.05;;
48667;SDS011;34453;52.198;5.004;2024-01-27T06:10:26;27.27;;;10.18;;
48667;SDS011;34453;52.198;5.004;2024-01-27T06:12:52;20.48;;;10.05;;
48667;SDS011;34453;52.198;5.004;2024-01-27T06:15:17;22.90;;;10.68;;
48667;SDS011;34453;52.198;5.004;2024-01-27T06:17:43;18.63;;;9.73;;
48667;SDS011;34453;52.198;5.004;2024-01-27T06:20:08;31.70;;;12.60;;
48667;SDS011;34453;52.198;5.004;2024-01-27T06:22:34;19.38;;;9.45;;
48667;SDS011;34453;52.198;5.004;2024-01-27T06:24:59;27.23;;;10.45;;
48667;SDS011;34453;52.198;5.004;2024-01-27T06:27:25;29.35;;;10.75;;
48667;SDS011;34453;52.198;5.004;2024-01-27T06:29:50;27.17;;;10.45;;
48667;SDS011;34453;52.198;5.004;2024-01-27T06:32:16;19.10;;;10.95;;
48667;SDS011;34453;52.198;5.004;2024-01-27T06:34:41;28.17;;;9.73;;
48667;SDS011;34453;52.198;5.004;2024-01-27T06:37:07;27.95;;;10.48;;
48667;SDS011;34453;52.198;5.004;2024-01-27T06:39:32;21.02;;;10.32;;
48667;SDS011;34453;52.198;5.004;2024-01-27T06:41:58;33.70;;;10.93;;
48667;SDS011;34453;52.198;5.004;2024-01-27T06:44:23;19.17;;;9.30;;
48667;SDS011;34453;52.198;5.004;2024-01-27T06:46:48;22.75;;;10.32;;
48667;SDS011;34453;52.198;5.004;2024-01-27T06:49:17;21.55;;;9.20;;
48667;SDS011;34453;52.198;5.004;2024-01-27T06:51:43;13.43;;;9.57;;
48667;SDS011;34453;52.198;5.004;2024-01-27T06:54:09;23.35;;;10.40;;
48667;SDS011;34453;52.198;5.004;2024-01-27T06:56:34;22.85;;;9.65;;
48667;SDS011;34453;52.198;5.004;2024-01-27T06:59:00;22.38;;;9.30;;
48667;SDS011;34453;52.198;5.004;2024-01-27T07:01:25;18.33;;;9.63;;
48667;SDS011;34453;52.198;5.004;2024-01-27T07:03:51;27.02;;;10.52;;
48667;SDS011;34453;52.198;5.004;2024-01-27T07:06:16;21.88;;;9.35;;
48667;SDS011;34453;52.198;5.004;2024-01-27T07:08:41;19.67;;;10.43;;
48667;SDS011;34453;52.198;5.004;2024-01-27T07:11:07;16.02;;;8.77;;
48667;SDS011;34453;52.198;5.004;2024-01-27T07:13:33;26.67;;;10.25;;
48667;SDS011;34453;52.198;5.004;2024-01-27T07:15:58;20.38;;;8.68;;
48667;SDS011;34453;52.198;5.004;2024-01-27T07:18:24;24.23;;;10.30;;
48667;SDS011;34453;52.198;5.004;2024-01-27T07:20:50;20.55;;;10.07;;
48667;SDS011;34453;52.198;5.004;2024-01-27T07:23:16;32.00;;;9.38;;
48667;SDS011;34453;52.198;5.004;2024-01-27T07:25:43;20.42;;;9.50;;
48667;SDS011;34453;52.198;5.004;2024-01-27T07:28:09;31.13;;;9.73;;
48667;SDS011;34453;52.198;5.004;2024-01-27T07:30:34;23.70;;;9.35;;
48667;SDS011;34453;52.198;5.004;2024-01-27T07:33:00;22.08;;;9.25;;
48667;SDS011;34453;52.198;5.004;2024-01-27T07:35:26;25.92;;;9.63;;
48667;SDS011;34453;52.198;5.004;2024-01-27T07:37:51;20.13;;;10.90;;
48667;SDS011;34453;52.198;5.004;2024-01-27T07:40:17;18.63;;;9.52;;
48667;SDS011;34453;52.198;5.004;2024-01-27T07:42:42;21.55;;;9.93;;
48667;SDS011;34453;52.198;5.004;2024-01-27T07:45:08;20.17;;;9.63;;
48667;SDS011;34453;52.198;5.004;2024-01-27T07:47:34;16.70;;;9.38;;
48667;SDS011;34453;52.198;5.004;2024-01-27T07:49:59;21.52;;;9.52;;
48667;SDS011;34453;52.198;5.004;2024-01-27T07:52:25;22.52;;;10.60;;
48667;SDS011;34453;52.198;5.004;2024-01-27T07:54:50;17.52;;;9.05;;
48667;SDS011;34453;52.198;5.004;2024-01-27T07:57:16;23.27;;;9.23;;
48667;SDS011;34453;52.198;5.004;2024-01-27T07:59:41;17.13;;;9.15;;
48667;SDS011;34453;52.198;5.004;2024-01-27T08:02:07;30.10;;;10.18;;
48667;SDS011;34453;52.198;5.004;2024-01-27T08:04:32;23.02;;;9.90;;
48667;SDS011;34453;52.198;5.004;2024-01-27T08:06:58;17.30;;;10.38;;
48667;SDS011;34453;52.198;5.004;2024-01-27T08:09:23;22.70;;;10.18;;
48667;SDS011;34453;52.198;5.004;2024-01-27T08:11:50;24.48;;;9.88;;
48667;SDS011;34453;52.198;5.004;2024-01-27T08:14:17;23.83;;;9.65;;
48667;SDS011;34453;52.198;5.004;2024-01-27T08:16:43;18.88;;;10.43;;
48667;SDS011;34453;52.198;5.004;2024-01-27T08:19:09;19.27;;;9.98;;
48667;SDS011;34453;52.198;5.004;2024-01-27T08:21:34;26.50;;;9.65;;
48667;SDS011;34453;52.198;5.004;2024-01-27T08:24:00;23.67;;;10.63;;
48667;SDS011;34453;52.198;5.004;2024-01-27T08:26:25;25.27;;;10.52;;
48667;SDS011;34453;52.198;5.004;2024-01-27T08:28:51;23.45;;;10.30;;
48667;SDS011;34453;52.198;5.004;2024-01-27T08:31:17;20.35;;;9.10;;
48667;SDS011;34453;52.198;5.004;2024-01-27T08:33:42;19.02;;;9.25;;
48667;SDS011;34453;52.198;5.004;2024-01-27T08:36:07;33.45;;;10.18;;
48667;SDS011;34453;52.198;5.004;2024-01-27T08:38:38;21.92;;;9.90;;
48667;SDS011;34453;52.198;5.004;2024-01-27T08:41:03;22.40;;;10.05;;
48667;SDS011;34453;52.198;5.004;2024-01-27T08:43:28;22.88;;;9.68;;
48667;SDS011;34453;52.198;5.004;2024-01-27T08:45:54;30.60;;;11.15;;
48667;SDS011;34453;52.198;5.004;2024-01-27T08:48:21;25.30;;;10.77;;
48667;SDS011;34453;52.198;5.004;2024-01-27T08:50:47;27.33;;;10.93;;
48667;SDS011;34453;52.198;5.004;2024-01-27T08:53:12;24.77;;;10.70;;
48667;SDS011;34453;52.198;5.004;2024-01-27T08:55:38;16.00;;;9.88;;
48667;SDS011;34453;52.198;5.004;2024-01-27T08:58:03;20.13;;;10.68;;
48667;SDS011;34453;52.198;5.004;2024-01-27T09:00:30;22.63;;;10.27;;
48667;SDS011;34453;52.198;5.004;2024-01-27T09:02:55;25.55;;;10.15;;
48667;SDS011;34453;52.198;5.004;2024-01-27T09:05:20;27.52;;;9.65;;
48667;SDS011;34453;52.198;5.004;2024-01-27T09:07:46;24.27;;;9.63;;
48667;SDS011;34453;52.198;5.004;2024-01-27T09:10:11;19.10;;;9.50;;
48667;SDS011;34453;52.198;5.004;2024-01-27T09:12:39;28.92;;;11.02;;
48667;SDS011;34453;52.198;5.004;2024-01-27T09:15:05;32.25;;;9.95;;
48667;SDS011;34453;52.198;5.004;2024-01-27T09:17:32;26.00;;;9.00;;
48667;SDS011;34453;52.198;5.004;2024-01-27T09:19:58;29.02;;;9.73;;
48667;SDS011;34453;52.198;5.004;2024-01-27T09:22:23;29.17;;;10.82;;
48667;SDS011;34453;52.198;5.004;2024-01-27T09:24:48;21.55;;;9.80;;
48667;SDS011;34453;52.198;5.004;2024-01-27T09:27:14;22.92;;;9.05;;
48667;SDS011;34453;52.198;5.004;2024-01-27T09:29:39;18.30;;;9.63;;
48667;SDS011;34453;52.198;5.004;2024-01-27T09:32:05;16.88;;;9.60;;
48667;SDS011;34453;52.198;5.004;2024-01-27T09:34:31;30.38;;;9.05;;
48667;SDS011;34453;52.198;5.004;2024-01-27T09:36:56;21.67;;;9.50;;
48667;SDS011;34453;52.198;5.004;2024-01-27T09:39:22;26.17;;;11.00;;
48667;SDS011;34453;52.198;5.004;2024-01-27T09:41:47;22.13;;;10.13;;
48667;SDS011;34453;52.198;5.004;2024-01-27T09:44:13;26.60;;;10.85;;
48667;SDS011;34453;52.198;5.004;2024-01-27T09:46:43;29.58;;;9.85;;
48667;SDS011;34453;52.198;5.004;2024-01-27T09:49:10;20.42;;;10.95;;
48667;SDS011;34453;52.198;5.004;2024-01-27T09:51:38;24.25;;;10.27;;
48667;SDS011;34453;52.198;5.004;2024-01-27T09:54:04;21.17;;;8.52;;
48667;SDS011;34453;52.198;5.004;2024-01-27T09:56:30;18.33;;;8.38;;
48667;SDS011;34453;52.198;5.004;2024-01-27T09:58:56;27.15;;;10.05;;
48667;SDS011;34453;52.198;5.004;2024-01-27T10:01:23;24.73;;;9.80;;
48667;SDS011;34453;52.198;5.004;2024-01-27T10:03:50;27.08;;;9.07;;
48667;SDS011;34453;52.198;5.004;2024-01-27T10:06:16;31.52;;;10.00;;
48667;SDS011;34453;52.198;5.004;2024-01-27T10:08:43;23.08;;;10.43;;
48667;SDS011;34453;52.198;5.004;2024-01-27T10:11:18;26.27;;;9.88;;
48667;SDS011;34453;52.198;5.004;2024-01-27T10:13:52;21.88;;;10.02;;
48667;SDS011;34453;52.198;5.004;2024-01-27T10:16:19;26.60;;;9.65;;
48667;SDS011;34453;52.198;5.004;2024-01-27T10:18:44;23.42;;;8.63;;
48667;SDS011;34453;52.198;5.004;2024-01-27T10:21:13;13.20;;;8.05;;
48667;SDS011;34453;52.198;5.004;2024-01-27T10:23:39;27.88;;;9.10;;
48667;SDS011;34453;52.198;5.004;2024-01-27T10:26:08;25.05;;;8.80;;
48667;SDS011;34453;52.198;5.004;2024-01-27T10:28:34;20.02;;;9.20;;
48667;SDS011;34453;52.198;5.004;2024-01-27T10:31:09;22.23;;;8.63;;
48667;SDS011;34453;52.198;5.004;2024-01-27T10:33:38;25.08;;;9.00;;
48667;SDS011;34453;52.198;5.004;2024-01-27T10:36:04;18.20;;;7.43;;
48667;SDS011;34453;52.198;5.004;2024-01-27T10:38:36;12.68;;;7.82;;
48667;SDS011;34453;52.198;5.004;2024-01-27T10:41:04;19.65;;;8.63;;
48667;SDS011;34453;52.198;5.004;2024-01-27T10:43:38;20.85;;;8.05;;
48667;SDS011;34453;52.198;5.004;2024-01-27T10:46:07;24.77;;;7.40;;
48667;SDS011;34453;52.198;5.004;2024-01-27T10:48:34;18.58;;;7.22;;
48667;SDS011;34453;52.198;5.004;2024-01-27T10:51:07;19.52;;;7.38;;
48667;SDS011;34453;52.198;5.004;2024-01-27T10:53:34;17.17;;;8.48;;
48667;SDS011;34453;52.198;5.004;2024-01-27T10:56:02;17.50;;;8.18;;
48667;SDS011;34453;52.198;5.004;2024-01-27T10:58:32;19.30;;;7.90;;
48667;SDS011;34453;52.198;5.004;2024-01-27T11:01:05;18.60;;;8.43;;
48667;SDS011;34453;52.198;5.004;2024-01-27T11:03:40;13.75;;;7.05;;
48667;SDS011;34453;52.198;5.004;2024-01-27T11:06:06;25.98;;;6.55;;
48667;SDS011;34453;52.198;5.004;2024-01-27T11:08:35;13.18;;;7.10;;
48667;SDS011;34453;52.198;5.004;2024-01-27T11:11:02;19.60;;;6.30;;
48667;SDS011;34453;52.198;5.004;2024-01-27T11:13:28;21.25;;;6.43;;
48667;SDS011;34453;52.198;5.004;2024-01-27T11:15:55;20.90;;;7.07;;
48667;SDS011;34453;52.198;5.004;2024-01-27T11:18:21;20.02;;;6.88;;
48667;SDS011;34453;52.198;5.004;2024-01-27T11:20:47;15.63;;;7.13;;
48667;SDS011;34453;52.198;5.004;2024-01-27T11:23:13;22.40;;;6.50;;
48667;SDS011;34453;52.198;5.004;2024-01-27T11:25:41;21.92;;;6.43;;
48667;SDS011;34453;52.198;5.004;2024-01-27T11:28:14;14.52;;;6.45;;
48667;SDS011;34453;52.198;5.004;2024-01-27T11:30:45;24.13;;;7.90;;
48667;SDS011;34453;52.198;5.004;2024-01-27T11:33:12;19.88;;;6.18;;
48667;SDS011;34453;52.198;5.004;2024-01-27T11:35:37;20.98;;;8.50;;
48667;SDS011;34453;52.198;5.004;2024-01-27T11:38:04;15.25;;;5.88;;
48667;SDS011;34453;52.198;5.004;2024-01-27T11:40:29;13.88;;;5.05;;
48667;SDS011;34453;52.198;5.004;2024-01-27T11:42:55;18.67;;;7.32;;
48667;SDS011;34453;52.198;5.004;2024-01-27T11:45:22;31.23;;;8.93;;
48667;SDS011;34453;52.198;5.004;2024-01-27T11:47:47;17.52;;;6.82;;
48667;SDS011;34453;52.198;5.004;2024-01-27T11:50:13;20.70;;;5.85;;
48667;SDS011;34453;52.198;5.004;2024-01-27T11:52:39;23.75;;;7.95;;
48667;SDS011;34453;52.198;5.004;2024-01-27T11:55:04;14.55;;;6.35;;
48667;SDS011;34453;52.198;5.004;2024-01-27T11:57:30;15.60;;;6.57;;
48667;SDS011;34453;52.198;5.004;2024-01-27T11:59:55;15.13;;;7.53;;
48667;SDS011;34453;52.198;5.004;2024-01-27T12:02:21;15.77;;;5.40;;
48667;SDS011;34453;52.198;5.004;2024-01-27T12:04:47;12.85;;;6.95;;
48667;SDS011;34453;52.198;5.004;2024-01-27T12:07:13;19.90;;;5.70;;
48667;SDS011;34453;52.198;5.004;2024-01-27T12:09:39;24.23;;;6.68;;
48667;SDS011;34453;52.198;5.004;2024-01-27T12:12:05;19.13;;;5.57;;
48667;SDS011;34453;52.198;5.004;2024-01-27T12:14:40;17.38;;;5.65;;
48667;SDS011;34453;52.198;5.004;2024-01-27T12:17:09;19.25;;;5.88;;
48667;SDS011;34453;52.198;5.004;2024-01-27T12:19:37;23.92;;;6.00;;
48667;SDS011;34453;52.198;5.004;2024-01-27T12:22:04;10.93;;;4.60;;
48667;SDS011;34453;52.198;5.004;2024-01-27T12:24:30;17.08;;;4.70;;
48667;SDS011;34453;52.198;5.004;2024-01-27T12:26:59;15.75;;;6.82;;
48667;SDS011;34453;52.198;5.004;2024-01-27T12:29:25;18.83;;;5.22;;
48667;SDS011;34453;52.198;5.004;2024-01-27T12:31:50;14.45;;;4.90;;
48667;SDS011;34453;52.198;5.004;2024-01-27T12:34:17;15.73;;;5.45;;
48667;SDS011;34453;52.198;5.004;2024-01-27T12:36:43;26.85;;;6.20;;
48667;SDS011;34453;52.198;5.004;2024-01-27T12:39:09;16.50;;;5.15;;
48667;SDS011;34453;52.198;5.004;2024-01-27T12:41:36;13.65;;;5.20;;
48667;SDS011;34453;52.198;5.004;2024-01-27T12:44:02;17.38;;;5.93;;
48667;SDS011;34453;52.198;5.004;2024-01-27T12:46:29;18.35;;;4.78;;
48667;SDS011;34453;52.198;5.004;2024-01-27T12:48:54;17.23;;;4.97;;
48667;SDS011;34453;52.198;5.004;2024-01-27T12:51:20;14.82;;;4.88;;
48667;SDS011;34453;52.198;5.004;2024-01-27T12:53:45;33.47;;;7.65;;
48667;SDS011;34453;52.198;5.004;2024-01-27T12:56:13;18.92;;;6.60;;
48667;SDS011;34453;52.198;5.004;2024-01-27T12:58:40;16.40;;;5.07;;
48667;SDS011;34453;52.198;5.004;2024-01-27T13:01:06;22.63;;;5.50;;
48667;SDS011;34453;52.198;5.004;2024-01-27T13:03:32;16.40;;;4.97;;
48667;SDS011;34453;52.198;5.004;2024-01-27T13:05:58;16.02;;;5.50;;
48667;SDS011;34453;52.198;5.004;2024-01-27T13:08:24;16.98;;;4.82;;
48667;SDS011;34453;52.198;5.004;2024-01-27T13:10:50;17.55;;;6.30;;
48667;SDS011;34453;52.198;5.004;2024-01-27T13:13:15;18.02;;;6.63;;
48667;SDS011;34453;52.198;5.004;2024-01-27T13:15:42;17.95;;;7.00;;
48667;SDS011;34453;52.198;5.004;2024-01-27T13:18:09;20.90;;;5.97;;
48667;SDS011;34453;52.198;5.004;2024-01-27T13:20:35;21.13;;;5.32;;
48667;SDS011;34453;52.198;5.004;2024-01-27T13:23:01;14.95;;;6.05;;
48667;SDS011;34453;52.198;5.004;2024-01-27T13:25:27;24.02;;;5.18;;
48667;SDS011;34453;52.198;5.004;2024-01-27T13:27:52;18.65;;;5.88;;
48667;SDS011;34453;52.198;5.004;2024-01-27T13:30:18;17.45;;;6.25;;
48667;SDS011;34453;52.198;5.004;2024-01-27T13:32:44;18.05;;;5.35;;
48667;SDS011;34453;52.198;5.004;2024-01-27T13:35:11;16.50;;;4.68;;
48667;SDS011;34453;52.198;5.004;2024-01-27T13:37:37;16.85;;;5.50;;
48667;SDS011;34453;52.198;5.004;2024-01-27T13:40:03;19.38;;;5.82;;
48667;SDS011;34453;52.198;5.004;2024-01-27T13:42:29;17.95;;;5.70;;
48667;SDS011;34453;52.198;5.004;2024-01-27T13:44:56;18.98;;;5.70;;
48667;SDS011;34453;52.198;5.004;2024-01-27T13:47:22;21.45;;;5.65;;
48667;SDS011;34453;52.198;5.004;2024-01-27T13:49:48;15.05;;;4.85;;
48667;SDS011;34453;52.198;5.004;2024-01-27T13:52:17;17.80;;;4.68;;
48667;SDS011;34453;52.198;5.004;2024-01-27T13:54:42;14.50;;;4.93;;
48667;SDS011;34453;52.198;5.004;2024-01-27T13:57:08;17.75;;;5.28;;
48667;SDS011;34453;52.198;5.004;2024-01-27T13:59:35;24.50;;;5.40;;
48667;SDS011;34453;52.198;5.004;2024-01-27T14:02:01;18.83;;;4.97;;
48667;SDS011;34453;52.198;5.004;2024-01-27T14:04:27;15.75;;;5.25;;
48667;SDS011;34453;52.198;5.004;2024-01-27T14:06:52;14.95;;;4.80;;
48667;SDS011;34453;52.198;5.004;2024-01-27T14:09:22;19.65;;;5.78;;
48667;SDS011;34453;52.198;5.004;2024-01-27T14:11:48;25.33;;;5.43;;
48667;SDS011;34453;52.198;5.004;2024-01-27T14:14:14;25.05;;;5.70;;
48667;SDS011;34453;52.198;5.004;2024-01-27T14:16:39;18.80;;;6.32;;
48667;SDS011;34453;52.198;5.004;2024-01-27T14:19:08;20.73;;;4.53;;
48667;SDS011;34453;52.198;5.004;2024-01-27T14:21:34;27.95;;;7.38;;
48667;SDS011;34453;52.198;5.004;2024-01-27T14:23:59;20.30;;;6.53;;
48667;SDS011;34453;52.198;5.004;2024-01-27T14:26:30;23.92;;;6.40;;
48667;SDS011;34453;52.198;5.004;2024-01-27T14:28:55;25.23;;;5.07;;